CheckWX is a tool to help pilots better visualize weather data.  It is not intended as a substitute for an official pre-flight weather briefing.

03:19:00 UTC

GCFV METAR
Fuerteventura Airport
Fuerteventura Island, Spain
Current

19 mins ago

GCFV 270300Z AUTO 33013KT 9999 NCD 21/15 Q1013
Observed
May-27 @ 03:00 UTC
Wind
  • 330° at 13 KTS
Visibility
10,000+ meters
Flight Rules
VFR
Cloud Levels
  • Clear skies
Temperature
21°C / 70°F
Dewpoint
15°C / 59°F
Humidity
69%
Altimeter
29.91" Hg
Pressure
1012.92 hPa
Previous

49 mins ago

GCFV 270230Z AUTO 33011KT 9999 NCD 21/15 Q1013
Observed
May-27 @ 02:30 UTC
Wind
  • 330° at 11 KTS
Visibility
10,000+ meters
Flight Rules
VFR
Cloud Levels
  • Clear skies
Temperature
21°C / 70°F
Dewpoint
15°C / 59°F
Humidity
69%
Altimeter
29.91" Hg
Pressure
1012.92 hPa
Previous

1 hour ago

GCFV 270200Z AUTO 32011KT 9999 NCD 21/15 Q1013
Observed
May-27 @ 02:00 UTC
Wind
  • 320° at 11 KTS
Visibility
10,000+ meters
Flight Rules
VFR
Cloud Levels
  • Clear skies
Temperature
21°C / 70°F
Dewpoint
15°C / 59°F
Humidity
69%
Altimeter
29.91" Hg
Pressure
1012.92 hPa